createdAt,value
2017-04-17T00:00:55.777Z,11.7
2017-04-17T00:01:55.793Z,11.69
2017-04-17T00:02:55.818Z,11.68
2017-04-17T00:03:55.831Z,11.72
2017-04-17T00:04:55.847Z,11.63
2017-04-17T00:05:55.861Z,11.72
2017-04-17T00:06:55.878Z,11.68
2017-04-17T00:07:55.902Z,11.69
2017-04-17T00:08:55.602Z,11.65
2017-04-17T00:09:56.016Z,11.6
2017-04-17T00:10:55.945Z,11.66
2017-04-17T00:11:55.962Z,11.68
2017-04-17T00:12:56.006Z,11.62
2017-04-17T00:13:55.990Z,11.59
2017-04-17T00:14:56.015Z,11.65
2017-04-17T00:15:56.028Z,11.62
2017-04-17T00:16:56.048Z,11.62
2017-04-17T00:17:55.759Z,11.62
2017-04-17T00:18:55.455Z,11.6
2017-04-17T00:19:55.780Z,11.55
2017-04-17T00:20:56.111Z,11.59
2017-04-17T00:21:55.815Z,11.54
2017-04-17T00:22:55.521Z,11.57
2017-04-17T00:23:55.856Z,11.5
2017-04-17T00:24:56.178Z,11.55
2017-04-17T00:25:55.880Z,11.6
2017-04-17T00:26:55.901Z,11.52
2017-04-17T00:27:56.434Z,11.47
2017-04-17T00:28:56.244Z,11.6
2017-04-17T00:29:55.951Z,11.5
2017-04-17T00:30:56.276Z,11.54
2017-04-17T00:31:55.980Z,11.47
2017-04-17T00:32:56.327Z,11.5
2017-04-17T00:33:56.332Z,11.5
2017-04-17T00:34:56.346Z,11.47
2017-04-17T00:35:56.043Z,11.48
2017-04-17T00:36:56.409Z,11.45
2017-04-17T00:37:56.399Z,11.41
2017-04-17T00:38:56.414Z,11.48
2017-04-17T00:39:56.429Z,11.51
2017-04-17T00:40:56.449Z,11.45
2017-04-17T00:41:56.144Z,11.44
2017-04-17T00:42:56.478Z,11.44
2017-04-17T00:43:56.494Z,11.41
2017-04-17T00:44:56.506Z,11.44
2017-04-17T00:45:56.365Z,11.44
2017-04-17T00:46:56.544Z,11.4
2017-04-17T00:47:56.567Z,11.41
2017-04-17T00:48:56.576Z,11.37
2017-04-17T00:49:56.596Z,11.33
2017-04-17T00:50:56.612Z,11.43
2017-04-17T00:51:56.622Z,11.35
2017-04-17T00:52:56.641Z,11.37
2017-04-17T00:53:56.661Z,11.36
2017-04-17T00:54:56.826Z,11.4
2017-04-17T00:55:56.690Z,11.41
2017-04-17T00:56:56.715Z,11.36
2017-04-17T00:58:02.993Z,11.37
2017-04-17T00:58:56.747Z,11.32
2017-04-17T00:59:56.763Z,11.27
2017-04-17T01:00:56.777Z,11.35
2017-04-17T01:01:56.791Z,11.33
2017-04-17T01:02:56.809Z,11.33
2017-04-17T01:03:56.824Z,11.37
2017-04-17T01:04:56.841Z,11.29
2017-04-17T01:05:56.857Z,11.23
2017-04-17T01:06:56.873Z,11.27
2017-04-17T01:07:56.891Z,11.27
2017-04-17T01:08:56.937Z,11.26
2017-04-17T01:09:56.923Z,11.3
2017-04-17T01:10:56.938Z,11.29
2017-04-17T01:11:56.954Z,11.25
2017-04-17T01:12:56.975Z,11.27
2017-04-17T01:13:57.108Z,11.3
2017-04-17T01:14:57.119Z,11.25
2017-04-17T01:15:57.126Z,11.19
2017-04-17T01:16:57.135Z,11.25
2017-04-17T01:17:57.161Z,11.18
2017-04-17T01:18:57.165Z,11.19
2017-04-17T01:19:57.089Z,11.22
2017-04-17T01:20:57.220Z,11.25
2017-04-17T01:21:57.221Z,11.17
2017-04-17T01:22:57.228Z,11.15
2017-04-17T01:23:57.261Z,11.19
2017-04-17T01:24:57.269Z,11.15
2017-04-17T01:25:57.278Z,11.19
2017-04-17T01:26:57.277Z,11.19
2017-04-17T01:27:57.285Z,11.17
2017-04-17T01:28:57.295Z,11.11
2017-04-17T01:29:57.303Z,11.15
2017-04-17T01:30:57.312Z,11.15
2017-04-17T01:31:57.310Z,11.17
2017-04-17T01:32:57.359Z,11.17
2017-04-17T01:33:57.367Z,11.14
2017-04-17T01:34:57.377Z,11.17
2017-04-17T01:35:57.374Z,11.12
2017-04-17T01:36:57.383Z,11.15
2017-04-17T01:37:57.392Z,11.15
2017-04-17T01:38:57.412Z,11.12
2017-04-17T01:39:57.503Z,11.11
2017-04-17T01:40:57.428Z,11.17
2017-04-17T01:41:57.445Z,11.15
2017-04-17T01:42:57.469Z,11.14
2017-04-17T01:43:57.480Z,11.1
2017-04-17T01:44:57.495Z,11.11
2017-04-17T01:45:57.510Z,11.11
2017-04-17T01:46:57.525Z,11.1
2017-04-17T01:47:57.327Z,11.07
2017-04-17T01:48:57.743Z,11.1
2017-04-17T01:49:57.346Z,10.99
2017-04-17T01:50:57.588Z,10.97
2017-04-17T01:51:57.607Z,11.02
2017-04-17T01:52:57.628Z,11
2017-04-17T01:53:57.638Z,11.07
2017-04-17T01:54:57.653Z,11.02
2017-04-17T01:55:57.674Z,11
2017-04-17T01:56:57.692Z,11.02
2017-04-17T01:57:57.975Z,10.94
2017-04-17T01:58:57.728Z,10.99
2017-04-17T01:59:57.423Z,11
2017-04-17T02:00:57.443Z,11.02
2017-04-17T02:01:57.769Z,11.05
2017-04-17T02:02:57.484Z,10.99
2017-04-17T02:03:57.489Z,10.99
2017-04-17T02:04:57.821Z,10.94
2017-04-17T02:05:57.526Z,10.96
2017-04-17T02:06:57.863Z,10.93
2017-04-17T02:07:57.558Z,10.92
2017-04-17T02:08:57.885Z,10.97
2017-04-17T02:09:57.900Z,10.96
2017-04-17T02:10:57.924Z,11
2017-04-17T02:11:57.941Z,10.94
2017-04-17T02:12:57.954Z,10.86
2017-04-17T02:13:57.963Z,10.99
2017-04-17T02:14:57.981Z,10.94
2017-04-17T02:15:57.993Z,10.93
2017-04-17T02:16:58.013Z,10.9
2017-04-17T02:17:58.032Z,10.89
2017-04-17T02:18:58.044Z,10.87
2017-04-17T02:19:58.061Z,10.89
2017-04-17T02:20:58.081Z,10.93
2017-04-17T02:21:58.092Z,10.92
2017-04-17T02:22:58.115Z,10.89
2017-04-17T02:23:58.133Z,10.87
2017-04-17T02:24:58.150Z,10.87
2017-04-17T02:25:58.155Z,10.89
2017-04-17T02:26:58.173Z,10.81
2017-04-17T02:27:58.193Z,10.84
2017-04-17T02:28:58.221Z,10.86
2017-04-17T02:29:58.227Z,10.78
2017-04-17T02:30:58.238Z,10.78
2017-04-17T02:31:58.260Z,10.89
2017-04-17T02:32:58.270Z,10.82
2017-04-17T02:33:58.289Z,10.74
2017-04-17T02:34:58.310Z,10.84
2017-04-17T02:35:58.318Z,10.75
2017-04-17T02:36:58.337Z,10.79
2017-04-17T02:37:58.355Z,10.81
2017-04-17T02:38:58.369Z,10.79
2017-04-17T02:39:58.392Z,10.78
2017-04-17T02:40:58.399Z,10.79
2017-04-17T02:41:58.415Z,10.72
2017-04-17T02:42:58.434Z,10.78
2017-04-17T02:43:58.449Z,10.82
2017-04-17T02:44:58.461Z,10.74
2017-04-17T02:45:58.479Z,10.84
2017-04-17T02:46:58.505Z,10.74
2017-04-17T02:47:58.513Z,10.74
2017-04-17T02:48:58.529Z,10.75
2017-04-17T02:49:58.548Z,10.75
2017-04-17T02:50:58.558Z,10.79
2017-04-17T02:51:58.572Z,10.78
2017-04-17T02:52:58.587Z,10.74
2017-04-17T02:53:58.609Z,10.69
2017-04-17T02:54:58.307Z,10.75
2017-04-17T02:55:58.334Z,10.76
2017-04-17T02:56:58.650Z,10.74
2017-04-17T02:57:58.673Z,10.82
2017-04-17T02:58:58.684Z,10.78
2017-04-17T02:59:58.705Z,10.76
2017-04-17T03:00:58.720Z,10.74
2017-04-17T03:01:58.739Z,10.74
2017-04-17T03:02:58.749Z,10.74
2017-04-17T03:03:58.761Z,10.71
2017-04-17T03:04:58.779Z,10.78
2017-04-17T03:05:58.800Z,10.69
2017-04-17T03:06:58.816Z,10.81
2017-04-17T03:07:58.523Z,10.68
2017-04-17T03:08:58.535Z,10.69
2017-04-17T03:09:58.866Z,10.69
2017-04-17T03:10:58.877Z,10.67
2017-04-17T03:11:58.895Z,10.67
2017-04-17T03:12:58.912Z,10.64
2017-04-17T03:13:58.925Z,10.64
2017-04-17T03:14:58.950Z,10.64
2017-04-17T03:15:58.963Z,10.67
2017-04-17T03:16:59.096Z,10.64
2017-04-17T03:17:59.098Z,10.68
2017-04-17T03:18:59.106Z,10.64
2017-04-17T03:19:59.114Z,10.6
2017-04-17T03:20:59.126Z,10.6
2017-04-17T03:21:59.161Z,10.63
2017-04-17T03:22:59.169Z,10.6
2017-04-17T03:23:59.180Z,10.67
2017-04-17T03:24:59.210Z,10.68
2017-04-17T03:25:59.208Z,10.63
2017-04-17T03:26:59.217Z,10.64
2017-04-17T03:27:59.226Z,10.69
2017-04-17T03:28:59.233Z,10.67
2017-04-17T03:29:59.179Z,10.6
2017-04-17T03:30:59.310Z,10.57
2017-04-17T03:31:59.310Z,10.48
2017-04-17T03:32:59.321Z,10.56
2017-04-17T03:33:59.458Z,10.6
2017-04-17T03:34:59.465Z,10.57
2017-04-17T03:35:59.471Z,10.53
2017-04-17T03:36:59.479Z,10.54
2017-04-17T03:37:59.488Z,10.54
2017-04-17T03:38:59.496Z,10.56
2017-04-17T03:39:59.506Z,10.57
2017-04-17T03:40:59.504Z,10.56
2017-04-17T03:41:59.515Z,10.56
2017-04-17T03:42:59.525Z,10.56
2017-04-17T03:43:59.531Z,10.57
2017-04-17T03:44:59.539Z,10.56
2017-04-17T03:45:59.429Z,10.54
2017-04-17T03:46:59.448Z,10.53
2017-04-17T03:47:59.466Z,10.51
2017-04-17T03:48:59.478Z,10.49
2017-04-17T03:49:59.489Z,10.48
2017-04-17T03:50:59.511Z,10.49
2017-04-17T03:51:59.525Z,10.51
2017-04-17T03:52:59.541Z,10.48
2017-04-17T03:53:59.562Z,10.44
2017-04-17T03:54:59.569Z,10.42
2017-04-17T03:55:59.595Z,10.44
2017-04-17T03:56:59.606Z,10.38
2017-04-17T03:57:59.619Z,10.4
2017-04-17T03:58:59.638Z,10.41
2017-04-17T03:59:59.658Z,10.44
2017-04-17T04:00:59.670Z,10.4
2017-04-17T04:01:59.687Z,10.4
2017-04-17T04:02:59.700Z,10.42
2017-04-17T04:03:59.727Z,10.4
2017-04-17T04:04:59.742Z,10.42
2017-04-17T04:05:59.746Z,10.41
2017-04-17T04:06:59.764Z,10.4
2017-04-17T04:07:59.782Z,10.42
2017-04-17T04:08:59.797Z,10.4
2017-04-17T04:09:59.811Z,10.38
2017-04-17T04:10:59.826Z,10.4
2017-04-17T04:11:59.841Z,10.4
2017-04-17T04:12:59.960Z,10.37
2017-04-17T04:13:59.967Z,10.37
2017-04-17T04:14:59.979Z,10.42
2017-04-17T04:15:59.602Z,10.4
2017-04-17T04:16:59.613Z,10.37
2017-04-17T04:17:59.993Z,10.41
2017-04-17T04:19:00.001Z,10.38
2017-04-17T04:20:00.013Z,10.38
2017-04-17T04:21:00.020Z,10.41
2017-04-17T04:22:00.020Z,10.4
2017-04-17T04:23:00.028Z,10.37
2017-04-17T04:24:00.036Z,10.34
2017-04-17T04:25:00.104Z,10.42
2017-04-17T04:26:00.105Z,10.37
2017-04-17T04:27:00.115Z,10.35
2017-04-17T04:28:00.122Z,10.3
2017-04-17T04:29:00.242Z,10.31
2017-04-17T04:30:00.246Z,10.37
2017-04-17T04:31:00.239Z,10.28
2017-04-17T04:32:00.248Z,10.34
2017-04-17T04:33:00.266Z,10.33
2017-04-17T04:34:00.287Z,10.26
2017-04-17T04:35:00.313Z,10.33
2017-04-17T04:36:00.022Z,10.3
2017-04-17T04:37:00.471Z,10.31
2017-04-17T04:38:00.389Z,10.38
2017-04-17T04:39:00.432Z,10.35
2017-04-17T04:40:00.121Z,10.23
2017-04-17T04:41:00.443Z,10.3
2017-04-17T04:42:00.460Z,10.4
2017-04-17T04:43:00.457Z,10.34
2017-04-17T04:44:00.482Z,10.33
2017-04-17T04:45:00.476Z,10.31
2017-04-17T04:46:00.517Z,10.38
2017-04-17T04:47:00.653Z,10.3
2017-04-17T04:48:00.534Z,10.38
2017-04-17T04:49:00.540Z,10.3
2017-04-17T04:50:00.539Z,10.33
2017-04-17T04:51:00.549Z,10.35
2017-04-17T04:52:00.558Z,10.33
2017-04-17T04:53:00.565Z,10.31
2017-04-17T04:54:00.583Z,10.33
2017-04-17T04:55:00.612Z,10.4
2017-04-17T04:56:00.619Z,10.37
2017-04-17T04:57:00.628Z,10.31
2017-04-17T04:58:00.248Z,10.35
2017-04-17T04:59:00.572Z,10.35
2017-04-17T05:00:00.605Z,10.31
2017-04-17T05:01:00.608Z,10.35
2017-04-17T05:02:00.645Z,10.35
2017-04-17T05:03:00.653Z,10.33
2017-04-17T05:04:00.703Z,10.3
2017-04-17T05:05:00.666Z,10.35
2017-04-17T05:06:00.680Z,10.34
2017-04-17T05:07:00.696Z,10.28
2017-04-17T05:08:00.720Z,10.35
2017-04-17T05:09:00.732Z,10.33
2017-04-17T05:10:00.748Z,10.37
2017-04-17T05:11:00.762Z,10.26
2017-04-17T05:12:00.782Z,10.23
2017-04-17T05:13:00.798Z,10.33
2017-04-17T05:14:00.833Z,10.31
2017-04-17T05:15:00.824Z,10.35
2017-04-17T05:16:00.839Z,10.26
2017-04-17T05:17:00.853Z,10.33
2017-04-17T05:18:00.870Z,10.33
2017-04-17T05:19:00.885Z,10.3
2017-04-17T05:20:00.913Z,10.28
2017-04-17T05:21:00.916Z,10.3
2017-04-17T05:22:00.940Z,10.31
2017-04-17T05:23:00.956Z,10.26
2017-04-17T05:24:00.968Z,10.33
2017-04-17T05:25:00.982Z,10.25
2017-04-17T05:26:01.006Z,10.28
2017-04-17T05:27:01.007Z,10.34
2017-04-17T05:28:01.033Z,10.35
2017-04-17T05:29:01.044Z,10.28
2017-04-17T05:30:01.070Z,10.35
2017-04-17T05:31:01.073Z,10.31
2017-04-17T05:32:01.088Z,10.3
2017-04-17T05:33:01.104Z,10.35
2017-04-17T05:34:00.804Z,10.33
2017-04-17T05:35:01.137Z,10.33
2017-04-17T05:36:01.153Z,10.37
2017-04-17T05:37:01.167Z,10.4
2017-04-17T05:38:01.186Z,10.3
2017-04-17T05:39:01.296Z,10.4
2017-04-17T05:40:01.219Z,10.35
2017-04-17T05:41:01.229Z,10.34
2017-04-17T05:42:01.246Z,10.4
2017-04-17T05:43:01.260Z,10.31
2017-04-17T05:44:01.272Z,10.37
2017-04-17T05:45:01.288Z,10.33
2017-04-17T05:46:01.303Z,10.37
2017-04-17T05:47:01.475Z,10.41
2017-04-17T05:48:01.341Z,10.37
2017-04-17T05:49:01.356Z,10.44
2017-04-17T05:50:01.376Z,10.4
2017-04-17T05:51:01.380Z,10.42
2017-04-17T05:52:01.408Z,10.41
2017-04-17T05:53:01.414Z,10.41
2017-04-17T05:54:01.434Z,10.35
2017-04-17T05:55:01.460Z,10.41
2017-04-17T05:56:01.462Z,10.46
2017-04-17T05:57:01.475Z,10.44
2017-04-17T05:58:01.496Z,10.4
2017-04-17T05:59:01.511Z,10.41
2017-04-17T06:00:01.526Z,10.42
2017-04-17T06:01:01.558Z,10.44
2017-04-17T06:02:01.554Z,10.48
2017-04-17T06:03:01.574Z,10.51
2017-04-17T06:04:01.584Z,10.49
2017-04-17T06:05:01.601Z,10.57
2017-04-17T06:06:01.615Z,10.54
2017-04-17T06:07:01.630Z,10.54
2017-04-17T06:08:01.649Z,10.56
2017-04-17T06:09:01.663Z,10.54
2017-04-17T06:10:01.683Z,10.57
2017-04-17T06:11:01.696Z,10.6
2017-04-17T06:12:01.710Z,10.63
2017-04-17T06:13:01.727Z,10.61
2017-04-17T06:14:01.738Z,10.6
2017-04-17T06:15:01.762Z,10.63
2017-04-17T06:16:01.772Z,10.63
2017-04-17T06:17:01.786Z,10.68
2017-04-17T06:18:01.808Z,10.68
2017-04-17T06:19:01.822Z,10.61
2017-04-17T06:20:01.831Z,10.68
2017-04-17T06:21:01.847Z,10.63
2017-04-17T06:22:02.043Z,10.64
2017-04-17T06:23:01.883Z,10.67
2017-04-17T06:24:01.896Z,10.72
2017-04-17T06:25:01.914Z,10.79
2017-04-17T06:26:01.926Z,10.72
2017-04-17T06:27:01.942Z,10.76
2017-04-17T06:28:01.959Z,10.79
2017-04-17T06:29:01.977Z,10.75
2017-04-17T06:30:01.997Z,10.79
2017-04-17T06:31:02.010Z,10.74
2017-04-17T06:32:02.024Z,10.81
2017-04-17T06:33:02.038Z,10.87
2017-04-17T06:34:02.055Z,10.84
2017-04-17T06:35:02.067Z,10.78
2017-04-17T06:36:02.086Z,10.9
2017-04-17T06:37:02.227Z,10.76
2017-04-17T06:38:02.227Z,10.84
2017-04-17T06:39:01.821Z,10.84
2017-04-17T06:40:02.239Z,10.78
2017-04-17T06:41:02.261Z,10.82
2017-04-17T06:42:02.271Z,10.79
2017-04-17T06:43:02.281Z,10.87
2017-04-17T06:44:02.296Z,10.81
2017-04-17T06:45:02.303Z,10.87
2017-04-17T06:46:02.299Z,10.89
2017-04-17T06:47:02.304Z,10.86
2017-04-17T06:48:02.314Z,10.87
2017-04-17T06:49:02.315Z,10.9
2017-04-17T06:50:02.384Z,10.97
2017-04-17T06:51:02.394Z,10.99
2017-04-17T06:52:02.404Z,10.96
2017-04-17T06:53:02.399Z,10.99
2017-04-17T06:54:02.406Z,11.05
2017-04-17T06:55:02.518Z,11.02
2017-04-17T06:56:02.526Z,11.08
2017-04-17T06:57:02.514Z,11.11
2017-04-17T06:58:02.532Z,11.08
2017-04-17T06:59:02.543Z,11.14
2017-04-17T07:00:02.559Z,11.1
2017-04-17T07:01:02.670Z,11.15
2017-04-17T07:02:02.594Z,11.15
2017-04-17T07:03:02.660Z,11.17
2017-04-17T07:04:02.776Z,11.12
2017-04-17T07:05:02.675Z,11.17
2017-04-17T07:06:02.990Z,11.18
2017-04-17T07:07:02.689Z,11.19
2017-04-17T07:08:02.692Z,11.15
2017-04-17T07:09:02.706Z,11.11
2017-04-17T07:10:02.710Z,11.15
2017-04-17T07:11:02.852Z,11.15
2017-04-17T07:12:02.876Z,11.22
2017-04-17T07:13:02.860Z,11.17
2017-04-17T07:14:02.874Z,11.17
2017-04-17T07:15:02.885Z,11.25
2017-04-17T07:16:02.902Z,11.25
2017-04-17T07:17:02.874Z,11.23
2017-04-17T07:18:02.858Z,11.23
2017-04-17T07:19:02.850Z,11.25
2017-04-17T07:20:02.553Z,11.27
2017-04-17T07:21:02.903Z,11.23
2017-04-17T07:22:02.873Z,11.27
2017-04-17T07:23:03.074Z,11.3
2017-04-17T07:24:02.891Z,11.41
2017-04-17T07:25:02.889Z,11.43
2017-04-17T07:26:02.662Z,11.4
2017-04-17T07:27:02.906Z,11.37
2017-04-17T07:28:02.915Z,11.37
2017-04-17T07:29:02.955Z,11.43
2017-04-17T07:30:02.948Z,11.41
2017-04-17T07:31:03.091Z,11.47
2017-04-17T07:32:02.984Z,11.43
2017-04-17T07:33:02.995Z,11.54
2017-04-17T07:34:02.736Z,11.48
2017-04-17T07:35:03.024Z,11.48
2017-04-17T07:36:03.040Z,11.51
2017-04-17T07:37:03.058Z,11.48
2017-04-17T07:38:02.772Z,11.52
2017-04-17T07:39:03.096Z,11.47
2017-04-17T07:40:03.246Z,11.48
2017-04-17T07:41:03.120Z,11.54
2017-04-17T07:42:03.158Z,11.52
2017-04-17T07:43:02.844Z,11.65
2017-04-17T07:44:03.168Z,11.57
2017-04-17T07:45:03.191Z,11.62
2017-04-17T07:46:03.213Z,11.62
2017-04-17T07:47:03.217Z,11.57
2017-04-17T07:48:03.254Z,11.68
2017-04-17T07:49:03.428Z,11.68
2017-04-17T07:50:03.279Z,11.63
2017-04-17T07:51:03.288Z,11.68
2017-04-17T07:52:03.297Z,11.65
2017-04-17T07:53:03.320Z,11.72
2017-04-17T07:54:03.355Z,11.66
2017-04-17T07:55:03.345Z,11.73
2017-04-17T07:56:03.104Z,11.75
2017-04-17T07:57:03.382Z,11.75
2017-04-17T07:58:03.400Z,11.77
2017-04-17T07:59:03.417Z,11.83
2017-04-17T08:00:03.457Z,11.73
2017-04-17T08:01:03.446Z,11.77
2017-04-17T08:02:03.483Z,11.81
2017-04-17T08:03:03.485Z,11.77
2017-04-17T08:04:03.506Z,11.78
2017-04-17T08:05:03.514Z,11.77
2017-04-17T08:06:03.531Z,11.78
2017-04-17T08:07:03.547Z,11.8
2017-04-17T08:08:03.571Z,11.66
2017-04-17T08:09:03.579Z,11.8
2017-04-17T08:10:03.600Z,11.8
2017-04-17T08:11:03.616Z,11.83
2017-04-17T08:12:03.630Z,11.88
2017-04-17T08:13:03.645Z,11.87
2017-04-17T08:14:03.395Z,11.9
2017-04-17T08:15:03.914Z,11.97
2017-04-17T08:16:03.716Z,11.87
2017-04-17T08:17:03.711Z,11.97
2017-04-17T08:18:03.736Z,12.04
2017-04-17T08:19:03.736Z,12.07
2017-04-17T08:20:03.767Z,12.07
2017-04-17T08:21:03.830Z,12.09
2017-04-17T08:22:03.793Z,12.09
2017-04-17T08:23:03.805Z,12.2
2017-04-17T08:24:03.848Z,12.24
2017-04-17T08:25:03.842Z,12.28
2017-04-17T08:26:03.865Z,12.28
2017-04-17T08:27:03.875Z,12.32
2017-04-17T08:28:03.581Z,12.36
2017-04-17T08:29:03.913Z,12.4
2017-04-17T08:30:03.925Z,12.4
2017-04-17T08:31:03.943Z,12.45
2017-04-17T08:32:04.070Z,12.55
2017-04-17T08:33:03.978Z,12.5
2017-04-17T08:34:03.988Z,12.61
2017-04-17T08:35:04.008Z,12.65
2017-04-17T08:36:04.023Z,12.7
2017-04-17T08:37:04.037Z,12.76
2017-04-17T08:38:04.070Z,12.73
2017-04-17T08:39:04.071Z,12.73
2017-04-17T08:40:04.096Z,12.79
2017-04-17T08:41:04.280Z,12.79
2017-04-17T08:42:04.123Z,12.85
2017-04-17T08:43:04.139Z,12.94
2017-04-17T08:44:04.156Z,12.95
2017-04-17T08:45:04.180Z,12.98
2017-04-17T08:46:03.907Z,13
2017-04-17T08:47:04.209Z,13.03
2017-04-17T08:48:04.224Z,13.03
2017-04-17T08:49:04.239Z,12.87
2017-04-17T08:50:04.258Z,13
2017-04-17T08:51:04.279Z,12.97
2017-04-17T08:52:04.290Z,13.09
2017-04-17T08:53:04.306Z,13.03
2017-04-17T08:54:04.325Z,13.13
2017-04-17T08:55:04.342Z,13.19
2017-04-17T08:56:04.359Z,13.25
2017-04-17T08:57:04.374Z,13.23
2017-04-17T08:58:04.393Z,13.23
2017-04-17T08:59:04.410Z,13.18
2017-04-17T09:00:04.428Z,13.31
2017-04-17T09:01:04.445Z,13.33
2017-04-17T09:02:04.462Z,13.35
2017-04-17T09:03:04.477Z,13.33
2017-04-17T09:04:04.496Z,13.37
2017-04-17T09:05:04.543Z,13.33
2017-04-17T09:06:04.531Z,13.37
2017-04-17T09:07:04.556Z,13.28
2017-04-17T09:08:04.563Z,13.38
2017-04-17T09:09:04.584Z,13.31
2017-04-17T09:10:04.596Z,13.41
2017-04-17T09:11:04.612Z,13.46
2017-04-17T09:12:04.633Z,13.42
2017-04-17T09:13:04.647Z,13.47
2017-04-17T09:14:04.356Z,13.52
2017-04-17T09:15:04.863Z,13.54
2017-04-17T09:16:04.698Z,13.59
2017-04-17T09:17:04.719Z,13.72
2017-04-17T09:18:04.737Z,13.71
2017-04-17T09:19:04.443Z,13.79
2017-04-17T09:20:04.768Z,13.81
2017-04-17T09:21:04.784Z,13.96
2017-04-17T09:22:04.808Z,13.97
2017-04-17T09:23:04.824Z,14
2017-04-17T09:24:05.071Z,14.11
2017-04-17T09:25:04.864Z,14.17
2017-04-17T09:26:04.560Z,14.14
2017-04-17T09:27:04.891Z,14.25
2017-04-17T09:28:04.906Z,14.28
2017-04-17T09:29:04.926Z,14.26
2017-04-17T09:30:04.948Z,14.33
2017-04-17T09:31:04.963Z,14.37
2017-04-17T09:32:04.977Z,14.32
2017-04-17T09:33:04.996Z,14.45
2017-04-17T09:34:05.014Z,14.45
2017-04-17T09:35:05.036Z,14.47
2017-04-17T09:36:05.054Z,14.41
2017-04-17T09:37:05.064Z,14.51
2017-04-17T09:38:05.093Z,14.53
2017-04-17T09:39:05.103Z,14.41
2017-04-17T09:40:04.819Z,14.43
2017-04-17T09:41:05.142Z,14.51
2017-04-17T09:42:05.161Z,14.48
2017-04-17T09:43:05.201Z,14.44
2017-04-17T09:44:05.190Z,14.5
2017-04-17T09:45:04.930Z,14.5
2017-04-17T09:46:04.969Z,14.47
2017-04-17T09:47:05.247Z,14.53
2017-04-17T09:48:05.261Z,14.54
2017-04-17T09:49:05.348Z,14.6
2017-04-17T09:50:04.985Z,14.68
2017-04-17T09:51:05.313Z,14.69
2017-04-17T09:52:05.360Z,14.7
2017-04-17T09:53:05.353Z,14.78
2017-04-17T09:54:05.384Z,14.79
2017-04-17T09:55:05.388Z,14.78
2017-04-17T09:56:05.413Z,14.77
2017-04-17T09:57:05.114Z,14.77
2017-04-17T09:58:05.445Z,14.81
2017-04-17T09:59:05.456Z,14.79
2017-04-17T10:00:05.499Z,14.89
2017-04-17T10:01:05.496Z,14.92
2017-04-17T10:02:05.526Z,14.99
2017-04-17T10:03:05.532Z,14.94
2017-04-17T10:04:05.551Z,15.02
2017-04-17T10:05:05.250Z,15.02
2017-04-17T10:06:05.284Z,15.1
2017-04-17T10:07:05.297Z,15.09
2017-04-17T10:08:05.352Z,15.09
2017-04-17T10:09:05.640Z,15.1
2017-04-17T10:10:05.348Z,15.14
2017-04-17T10:11:05.674Z,15.17
2017-04-17T10:12:05.415Z,15.04
2017-04-17T10:13:05.718Z,15.09
2017-04-17T10:14:05.548Z,15.1
2017-04-17T10:15:05.749Z,15.03
2017-04-17T10:16:05.480Z,15.15
2017-04-17T10:17:05.791Z,15.11
2017-04-17T10:18:05.808Z,15.1
2017-04-17T10:19:05.514Z,15.15
2017-04-17T10:20:05.538Z,15.14
2017-04-17T10:21:05.872Z,15.18
2017-04-17T10:22:05.703Z,15.14
2017-04-17T10:23:05.903Z,15.24
2017-04-17T10:24:05.926Z,15.35
2017-04-17T10:25:05.937Z,15.37
2017-04-17T10:26:05.954Z,15.47
2017-04-17T10:27:05.983Z,15.54
2017-04-17T10:28:06.008Z,15.65
2017-04-17T10:29:06.011Z,15.72
2017-04-17T10:30:06.052Z,15.84
2017-04-17T10:31:06.050Z,15.95
2017-04-17T10:32:06.074Z,15.98
2017-04-17T10:33:06.085Z,16.04
2017-04-17T10:34:06.107Z,16.16
2017-04-17T10:35:05.813Z,16.2
2017-04-17T10:36:06.153Z,16.32
2017-04-17T10:37:06.163Z,16.41
2017-04-17T10:38:06.183Z,16.43
2017-04-17T10:39:05.889Z,16.6
2017-04-17T10:40:06.219Z,16.6
2017-04-17T10:41:06.242Z,16.65
2017-04-17T10:42:06.255Z,16.78
2017-04-17T10:43:06.277Z,16.75
2017-04-17T10:44:05.998Z,16.81
2017-04-17T10:45:06.450Z,16.87
2017-04-17T10:46:06.047Z,16.96
2017-04-17T10:47:06.355Z,16.96
2017-04-17T10:48:06.376Z,16.99
2017-04-17T10:49:06.391Z,17.02
2017-04-17T10:50:06.098Z,16.97
2017-04-17T10:51:06.436Z,16.97
2017-04-17T10:52:06.451Z,17.01
2017-04-17T10:53:06.469Z,17.01
2017-04-17T10:54:06.483Z,16.9
2017-04-17T10:55:06.507Z,16.87
2017-04-17T10:56:06.534Z,16.83
2017-04-17T10:57:06.550Z,16.83
2017-04-17T10:58:06.567Z,16.78
2017-04-17T10:59:06.586Z,16.74
2017-04-17T11:00:06.295Z,16.64
2017-04-17T11:01:06.620Z,16.64
2017-04-17T11:02:06.327Z,16.54
2017-04-17T11:03:06.347Z,16.49
2017-04-17T11:04:06.680Z,16.41
2017-04-17T11:05:06.700Z,16.38
2017-04-17T11:06:06.721Z,16.31
2017-04-17T11:07:06.738Z,16.28
2017-04-17T11:08:06.449Z,16.16
2017-04-17T11:09:06.779Z,16.17
2017-04-17T11:10:06.799Z,16.04
2017-04-17T11:11:06.819Z,15.98
2017-04-17T11:12:06.840Z,15.95
2017-04-17T11:13:06.859Z,15.94
2017-04-17T11:14:06.873Z,15.86
2017-04-17T11:15:06.894Z,15.77
2017-04-17T11:16:06.720Z,15.73
2017-04-17T11:17:07.088Z,15.59
2017-04-17T11:18:06.949Z,15.57
2017-04-17T11:19:06.976Z,15.55
2017-04-17T11:20:06.679Z,15.49
2017-04-17T11:21:07.010Z,15.37
2017-04-17T11:22:07.035Z,15.31
2017-04-17T11:23:07.097Z,15.27
2017-04-17T11:24:07.091Z,15.24
2017-04-17T11:25:07.099Z,15.11
2017-04-17T11:26:07.109Z,15.03
2017-04-17T11:27:07.125Z,14.94
2017-04-17T11:28:07.144Z,14.94
2017-04-17T11:29:07.169Z,14.77
2017-04-17T11:30:07.393Z,14.78
2017-04-17T11:31:07.204Z,14.69
2017-04-17T11:32:07.224Z,14.59
2017-04-17T11:33:07.237Z,14.5
2017-04-17T11:34:07.269Z,14.37
2017-04-17T11:35:07.276Z,14.43
2017-04-17T11:36:07.301Z,14.37
2017-04-17T11:37:07.011Z,14.23
2017-04-17T11:38:07.339Z,14.29
2017-04-17T11:39:07.356Z,14.2
2017-04-17T11:40:07.374Z,14.25
2017-04-17T11:41:07.397Z,14.11
2017-04-17T11:42:07.419Z,14.23
2017-04-17T11:43:07.434Z,14.15
2017-04-17T11:44:07.447Z,14.08
2017-04-17T11:45:07.470Z,14.05
2017-04-17T11:46:07.180Z,14
2017-04-17T11:47:07.506Z,14.04
2017-04-17T11:48:07.526Z,14.03
2017-04-17T11:49:07.545Z,14
2017-04-17T11:50:07.558Z,14.03
2017-04-17T11:51:07.580Z,14
2017-04-17T11:52:07.606Z,13.87
2017-04-17T11:53:07.620Z,13.97
2017-04-17T11:54:07.639Z,13.97
2017-04-17T11:55:07.736Z,13.9
2017-04-17T11:56:07.673Z,13.92
2017-04-17T11:57:07.383Z,13.93
2017-04-17T11:58:07.713Z,13.89
2017-04-17T11:59:07.732Z,13.97
2017-04-17T12:00:07.748Z,13.95
2017-04-17T12:01:07.764Z,13.95
2017-04-17T12:02:07.791Z,13.95
2017-04-17T12:03:07.802Z,13.93
2017-04-17T12:04:07.820Z,13.99
2017-04-17T12:05:07.530Z,13.93
2017-04-17T12:06:07.857Z,13.9
2017-04-17T12:07:07.880Z,13.95
2017-04-17T12:08:07.894Z,14.03
2017-04-17T12:09:07.919Z,14.04
2017-04-17T12:10:07.621Z,14
2017-04-17T12:11:07.956Z,14.05
2017-04-17T12:12:08.220Z,14.03
2017-04-17T12:13:07.992Z,14.12
2017-04-17T12:14:08.009Z,14.12
2017-04-17T12:15:08.027Z,14.14
2017-04-17T12:16:08.046Z,14.15
2017-04-17T12:17:08.072Z,14.15
2017-04-17T12:18:08.083Z,14.26
2017-04-17T12:19:08.103Z,14.17
2017-04-17T12:20:08.184Z,14.29
2017-04-17T12:21:08.137Z,14.25
2017-04-17T12:22:08.155Z,14.35
2017-04-17T12:23:08.190Z,14.41
2017-04-17T12:24:07.894Z,14.5
2017-04-17T12:25:08.273Z,14.58
2017-04-17T12:26:08.283Z,14.69
2017-04-17T12:27:08.290Z,14.73
2017-04-17T12:28:08.299Z,14.79
2017-04-17T12:29:08.299Z,14.82
2017-04-17T12:30:07.998Z,14.91
2017-04-17T12:31:08.015Z,14.99
2017-04-17T12:32:08.462Z,15.03
2017-04-17T12:33:08.471Z,15.03
2017-04-17T12:34:08.082Z,15.06
2017-04-17T12:35:08.500Z,15.06
2017-04-17T12:36:08.424Z,15.07
2017-04-17T12:37:08.537Z,15.07
2017-04-17T12:38:08.535Z,15.21
2017-04-17T12:39:08.567Z,15.21
2017-04-17T12:40:08.276Z,15.28
2017-04-17T12:41:08.285Z,15.24
2017-04-17T12:42:08.593Z,15.29
2017-04-17T12:43:08.593Z,15.28
2017-04-17T12:44:08.301Z,15.35
2017-04-17T12:45:08.691Z,15.4
2017-04-17T12:46:08.620Z,15.35
2017-04-17T12:47:08.629Z,15.42
2017-04-17T12:48:08.646Z,15.47
2017-04-17T12:49:08.669Z,15.52
2017-04-17T12:50:08.685Z,15.55
2017-04-17T12:51:08.708Z,15.61
2017-04-17T12:52:08.723Z,15.59
2017-04-17T12:53:08.739Z,15.59
2017-04-17T12:54:08.759Z,15.73
2017-04-17T12:55:08.778Z,15.72
2017-04-17T12:56:08.801Z,15.77
2017-04-17T12:57:08.820Z,15.76